sensor_id;sensor_type;location;lat;lon;timestamp;P1;durP1;ratioP1;P2;durP2;ratioP2
37895;SDS011;23733;53.254;10.430;2023-12-28T00:00:30;2.83;;;1.90;;
37895;SDS011;23733;53.254;10.430;2023-12-28T00:02:56;3.20;;;1.90;;
37895;SDS011;23733;53.254;10.430;2023-12-28T00:05:22;3.03;;;1.97;;
37895;SDS011;23733;53.254;10.430;2023-12-28T00:07:49;4.33;;;1.80;;
37895;SDS011;23733;53.254;10.430;2023-12-28T00:10:22;3.53;;;1.93;;
37895;SDS011;23733;53.254;10.430;2023-12-28T00:12:49;4.43;;;1.97;;
37895;SDS011;23733;53.254;10.430;2023-12-28T00:15:15;3.27;;;1.90;;
37895;SDS011;23733;53.254;10.430;2023-12-28T00:17:41;6.03;;;1.87;;
37895;SDS011;23733;53.254;10.430;2023-12-28T00:20:09;3.67;;;2.00;;
37895;SDS011;23733;53.254;10.430;2023-12-28T00:22:37;3.10;;;1.80;;
37895;SDS011;23733;53.254;10.430;2023-12-28T00:25:04;4.40;;;1.90;;
37895;SDS011;23733;53.254;10.430;2023-12-28T00:27:30;3.57;;;1.80;;
37895;SDS011;23733;53.254;10.430;2023-12-28T00:29:56;3.63;;;1.60;;
37895;SDS011;23733;53.254;10.430;2023-12-28T00:32:23;4.60;;;1.70;;
37895;SDS011;23733;53.254;10.430;2023-12-28T00:34:49;3.77;;;1.97;;
37895;SDS011;23733;53.254;10.430;2023-12-28T00:37:15;3.77;;;1.67;;
37895;SDS011;23733;53.254;10.430;2023-12-28T00:39:45;2.50;;;1.70;;
37895;SDS011;23733;53.254;10.430;2023-12-28T00:42:12;5.17;;;1.60;;
37895;SDS011;23733;53.254;10.430;2023-12-28T00:44:39;5.07;;;1.80;;
37895;SDS011;23733;53.254;10.430;2023-12-28T00:47:05;2.83;;;1.50;;
37895;SDS011;23733;53.254;10.430;2023-12-28T00:49:31;2.73;;;1.60;;
37895;SDS011;23733;53.254;10.430;2023-12-28T00:51:58;3.87;;;1.70;;
37895;SDS011;23733;53.254;10.430;2023-12-28T00:54:24;2.90;;;1.50;;
37895;SDS011;23733;53.254;10.430;2023-12-28T00:56:50;2.87;;;1.70;;
37895;SDS011;23733;53.254;10.430;2023-12-28T00:59:17;4.97;;;1.63;;
37895;SDS011;23733;53.254;10.430;2023-12-28T01:01:46;2.80;;;1.60;;
37895;SDS011;23733;53.254;10.430;2023-12-28T01:04:12;3.70;;;1.70;;
37895;SDS011;23733;53.254;10.430;2023-12-28T01:06:39;3.83;;;1.63;;
37895;SDS011;23733;53.254;10.430;2023-12-28T01:09:06;3.93;;;1.80;;
37895;SDS011;23733;53.254;10.430;2023-12-28T01:11:32;3.30;;;1.50;;
37895;SDS011;23733;53.254;10.430;2023-12-28T01:13:58;2.83;;;1.50;;
37895;SDS011;23733;53.254;10.430;2023-12-28T01:16:25;4.47;;;2.20;;
37895;SDS011;23733;53.254;10.430;2023-12-28T01:18:51;3.67;;;1.77;;
37895;SDS011;23733;53.254;10.430;2023-12-28T01:21:19;4.27;;;1.83;;
37895;SDS011;23733;53.254;10.430;2023-12-28T01:23:46;4.07;;;1.77;;
37895;SDS011;23733;53.254;10.430;2023-12-28T01:26:15;3.80;;;2.03;;
37895;SDS011;23733;53.254;10.430;2023-12-28T01:28:42;2.53;;;1.50;;
37895;SDS011;23733;53.254;10.430;2023-12-28T01:31:09;2.50;;;1.70;;
37895;SDS011;23733;53.254;10.430;2023-12-28T01:33:35;2.50;;;1.70;;
37895;SDS011;23733;53.254;10.430;2023-12-28T01:36:02;3.33;;;1.83;;
37895;SDS011;23733;53.254;10.430;2023-12-28T01:38:28;1.83;;;1.40;;
37895;SDS011;23733;53.254;10.430;2023-12-28T01:40:56;2.53;;;1.60;;
37895;SDS011;23733;53.254;10.430;2023-12-28T01:43:23;4.67;;;1.73;;
37895;SDS011;23733;53.254;10.430;2023-12-28T01:45:49;2.47;;;1.40;;
37895;SDS011;23733;53.254;10.430;2023-12-28T01:48:15;5.37;;;1.90;;
37895;SDS011;23733;53.254;10.430;2023-12-28T01:50:42;3.57;;;1.73;;
37895;SDS011;23733;53.254;10.430;2023-12-28T01:53:08;3.33;;;1.70;;
37895;SDS011;23733;53.254;10.430;2023-12-28T01:55:34;4.70;;;1.67;;
37895;SDS011;23733;53.254;10.430;2023-12-28T01:58:01;4.77;;;1.70;;
37895;SDS011;23733;53.254;10.430;2023-12-28T02:00:28;3.40;;;1.70;;
37895;SDS011;23733;53.254;10.430;2023-12-28T02:02:54;3.17;;;1.57;;
37895;SDS011;23733;53.254;10.430;2023-12-28T02:05:32;3.27;;;1.70;;
37895;SDS011;23733;53.254;10.430;2023-12-28T02:07:58;2.73;;;1.50;;
37895;SDS011;23733;53.254;10.430;2023-12-28T02:10:24;3.43;;;1.73;;
37895;SDS011;23733;53.254;10.430;2023-12-28T02:12:51;6.03;;;1.80;;
37895;SDS011;23733;53.254;10.430;2023-12-28T02:15:18;3.80;;;1.80;;
37895;SDS011;23733;53.254;10.430;2023-12-28T02:20:30;2.93;;;1.57;;
37895;SDS011;23733;53.254;10.430;2023-12-28T02:22:56;2.13;;;1.47;;
37895;SDS011;23733;53.254;10.430;2023-12-28T02:25:23;3.60;;;1.77;;
37895;SDS011;23733;53.254;10.430;2023-12-28T02:27:51;3.33;;;1.70;;
37895;SDS011;23733;53.254;10.430;2023-12-28T02:30:21;2.13;;;1.40;;
37895;SDS011;23733;53.254;10.430;2023-12-28T02:37:58;2.93;;;1.60;;
37895;SDS011;23733;53.254;10.430;2023-12-28T02:40:25;5.57;;;2.03;;
37895;SDS011;23733;53.254;10.430;2023-12-28T02:42:52;3.17;;;1.50;;
37895;SDS011;23733;53.254;10.430;2023-12-28T02:45:18;2.67;;;1.70;;
37895;SDS011;23733;53.254;10.430;2023-12-28T02:47:45;3.57;;;2.07;;
37895;SDS011;23733;53.254;10.430;2023-12-28T02:50:11;3.13;;;1.50;;
37895;SDS011;23733;53.254;10.430;2023-12-28T02:52:39;4.27;;;1.90;;
37895;SDS011;23733;53.254;10.430;2023-12-28T02:55:06;2.60;;;1.90;;
37895;SDS011;23733;53.254;10.430;2023-12-28T02:57:32;2.60;;;1.60;;
37895;SDS011;23733;53.254;10.430;2023-12-28T03:00:03;2.77;;;1.70;;
37895;SDS011;23733;53.254;10.430;2023-12-28T03:02:30;5.37;;;1.97;;
37895;SDS011;23733;53.254;10.430;2023-12-28T03:04:56;3.50;;;1.90;;
37895;SDS011;23733;53.254;10.430;2023-12-28T03:07:23;3.80;;;1.90;;
37895;SDS011;23733;53.254;10.430;2023-12-28T03:09:49;5.03;;;1.93;;
37895;SDS011;23733;53.254;10.430;2023-12-28T03:12:15;4.33;;;2.07;;
37895;SDS011;23733;53.254;10.430;2023-12-28T03:14:42;3.40;;;2.10;;
37895;SDS011;23733;53.254;10.430;2023-12-28T03:17:08;4.80;;;2.10;;
37895;SDS011;23733;53.254;10.430;2023-12-28T03:19:37;4.63;;;2.03;;
37895;SDS011;23733;53.254;10.430;2023-12-28T03:22:04;3.70;;;2.07;;
37895;SDS011;23733;53.254;10.430;2023-12-28T03:24:31;3.67;;;2.63;;
37895;SDS011;23733;53.254;10.430;2023-12-28T03:26:57;3.17;;;2.17;;
37895;SDS011;23733;53.254;10.430;2023-12-28T03:29:24;3.83;;;2.37;;
37895;SDS011;23733;53.254;10.430;2023-12-28T03:31:50;2.80;;;2.10;;
37895;SDS011;23733;53.254;10.430;2023-12-28T03:34:18;4.23;;;2.30;;
37895;SDS011;23733;53.254;10.430;2023-12-28T03:36:44;4.40;;;2.20;;
37895;SDS011;23733;53.254;10.430;2023-12-28T03:39:10;5.13;;;2.10;;
37895;SDS011;23733;53.254;10.430;2023-12-28T03:41:37;5.07;;;1.90;;
37895;SDS011;23733;53.254;10.430;2023-12-28T03:44:03;3.20;;;2.23;;
37895;SDS011;23733;53.254;10.430;2023-12-28T03:46:30;3.50;;;2.23;;
37895;SDS011;23733;53.254;10.430;2023-12-28T03:48:56;3.03;;;2.13;;
37895;SDS011;23733;53.254;10.430;2023-12-28T03:51:22;4.13;;;2.37;;
37895;SDS011;23733;53.254;10.430;2023-12-28T03:53:48;4.00;;;2.40;;
37895;SDS011;23733;53.254;10.430;2023-12-28T03:56:25;3.40;;;2.30;;
37895;SDS011;23733;53.254;10.430;2023-12-28T03:58:52;2.73;;;2.20;;
37895;SDS011;23733;53.254;10.430;2023-12-28T04:01:19;3.70;;;2.20;;
37895;SDS011;23733;53.254;10.430;2023-12-28T04:03:45;5.57;;;2.50;;
37895;SDS011;23733;53.254;10.430;2023-12-28T04:06:12;3.97;;;2.47;;
37895;SDS011;23733;53.254;10.430;2023-12-28T04:08:38;4.70;;;2.60;;
37895;SDS011;23733;53.254;10.430;2023-12-28T04:11:05;6.97;;;2.50;;
37895;SDS011;23733;53.254;10.430;2023-12-28T04:13:31;5.20;;;2.20;;
37895;SDS011;23733;53.254;10.430;2023-12-28T04:15:57;3.63;;;2.40;;
37895;SDS011;23733;53.254;10.430;2023-12-28T04:18:24;6.40;;;2.20;;
37895;SDS011;23733;53.254;10.430;2023-12-28T04:20:50;3.80;;;2.27;;
37895;SDS011;23733;53.254;10.430;2023-12-28T04:23:17;5.47;;;2.37;;
37895;SDS011;23733;53.254;10.430;2023-12-28T04:25:43;5.50;;;2.37;;
37895;SDS011;23733;53.254;10.430;2023-12-28T04:28:09;4.87;;;2.47;;
37895;SDS011;23733;53.254;10.430;2023-12-28T04:30:36;5.77;;;2.70;;
37895;SDS011;23733;53.254;10.430;2023-12-28T04:33:02;3.00;;;2.20;;
37895;SDS011;23733;53.254;10.430;2023-12-28T04:35:29;5.07;;;2.33;;
37895;SDS011;23733;53.254;10.430;2023-12-28T04:37:55;3.80;;;1.90;;
37895;SDS011;23733;53.254;10.430;2023-12-28T04:40:23;3.37;;;2.13;;
37895;SDS011;23733;53.254;10.430;2023-12-28T04:42:51;6.13;;;2.70;;
37895;SDS011;23733;53.254;10.430;2023-12-28T04:45:18;5.83;;;2.80;;
37895;SDS011;23733;53.254;10.430;2023-12-28T04:47:44;3.63;;;2.13;;
37895;SDS011;23733;53.254;10.430;2023-12-28T04:50:12;4.00;;;2.00;;
37895;SDS011;23733;53.254;10.430;2023-12-28T04:52:38;4.37;;;2.20;;
37895;SDS011;23733;53.254;10.430;2023-12-28T04:55:06;4.23;;;2.37;;
37895;SDS011;23733;53.254;10.430;2023-12-28T04:57:32;4.83;;;2.40;;
37895;SDS011;23733;53.254;10.430;2023-12-28T04:59:59;3.57;;;2.30;;
37895;SDS011;23733;53.254;10.430;2023-12-28T05:02:25;3.27;;;2.10;;
37895;SDS011;23733;53.254;10.430;2023-12-28T05:04:51;3.90;;;2.10;;
37895;SDS011;23733;53.254;10.430;2023-12-28T05:07:18;5.17;;;2.20;;
37895;SDS011;23733;53.254;10.430;2023-12-28T05:09:44;7.43;;;2.70;;
37895;SDS011;23733;53.254;10.430;2023-12-28T05:12:10;4.90;;;2.67;;
37895;SDS011;23733;53.254;10.430;2023-12-28T05:14:38;3.80;;;2.27;;
37895;SDS011;23733;53.254;10.430;2023-12-28T05:17:04;4.03;;;2.00;;
37895;SDS011;23733;53.254;10.430;2023-12-28T05:19:33;5.03;;;2.20;;
37895;SDS011;23733;53.254;10.430;2023-12-28T05:21:59;7.13;;;2.67;;
37895;SDS011;23733;53.254;10.430;2023-12-28T05:24:30;6.83;;;2.90;;
37895;SDS011;23733;53.254;10.430;2023-12-28T05:26:56;6.40;;;2.60;;
37895;SDS011;23733;53.254;10.430;2023-12-28T05:29:22;3.83;;;2.10;;
37895;SDS011;23733;53.254;10.430;2023-12-28T05:31:50;4.60;;;2.13;;
37895;SDS011;23733;53.254;10.430;2023-12-28T05:34:17;4.03;;;2.43;;
37895;SDS011;23733;53.254;10.430;2023-12-28T05:36:43;3.67;;;2.40;;
37895;SDS011;23733;53.254;10.430;2023-12-28T05:39:11;6.10;;;2.00;;
37895;SDS011;23733;53.254;10.430;2023-12-28T05:41:42;6.47;;;2.20;;
37895;SDS011;23733;53.254;10.430;2023-12-28T05:44:10;5.17;;;2.37;;
37895;SDS011;23733;53.254;10.430;2023-12-28T05:46:36;3.93;;;2.13;;
37895;SDS011;23733;53.254;10.430;2023-12-28T05:49:02;6.07;;;2.37;;
37895;SDS011;23733;53.254;10.430;2023-12-28T05:51:29;5.00;;;2.30;;
37895;SDS011;23733;53.254;10.430;2023-12-28T05:53:55;5.60;;;2.50;;
37895;SDS011;23733;53.254;10.430;2023-12-28T05:56:21;5.17;;;2.40;;
37895;SDS011;23733;53.254;10.430;2023-12-28T05:58:48;4.67;;;2.10;;
37895;SDS011;23733;53.254;10.430;2023-12-28T06:01:14;5.07;;;2.63;;
37895;SDS011;23733;53.254;10.430;2023-12-28T06:03:40;7.13;;;2.40;;
37895;SDS011;23733;53.254;10.430;2023-12-28T06:06:07;6.60;;;2.40;;
37895;SDS011;23733;53.254;10.430;2023-12-28T06:08:35;6.00;;;2.53;;
37895;SDS011;23733;53.254;10.430;2023-12-28T06:11:01;4.30;;;2.33;;
37895;SDS011;23733;53.254;10.430;2023-12-28T06:13:27;4.33;;;2.10;;
37895;SDS011;23733;53.254;10.430;2023-12-28T06:15:54;4.13;;;2.20;;
37895;SDS011;23733;53.254;10.430;2023-12-28T06:18:20;4.47;;;2.00;;
37895;SDS011;23733;53.254;10.430;2023-12-28T06:20:47;4.93;;;2.13;;
37895;SDS011;23733;53.254;10.430;2023-12-28T06:23:14;9.97;;;2.23;;
37895;SDS011;23733;53.254;10.430;2023-12-28T06:25:41;4.50;;;2.00;;
37895;SDS011;23733;53.254;10.430;2023-12-28T06:28:07;4.17;;;2.00;;
37895;SDS011;23733;53.254;10.430;2023-12-28T06:30:34;4.77;;;2.00;;
37895;SDS011;23733;53.254;10.430;2023-12-28T06:33:01;3.93;;;2.10;;
37895;SDS011;23733;53.254;10.430;2023-12-28T06:35:27;6.73;;;2.20;;
37895;SDS011;23733;53.254;10.430;2023-12-28T06:37:53;5.07;;;2.20;;
37895;SDS011;23733;53.254;10.430;2023-12-28T06:40:20;5.83;;;2.00;;
37895;SDS011;23733;53.254;10.430;2023-12-28T06:42:46;4.27;;;2.10;;
37895;SDS011;23733;53.254;10.430;2023-12-28T06:45:12;4.53;;;1.90;;
37895;SDS011;23733;53.254;10.430;2023-12-28T06:47:40;4.17;;;2.07;;
37895;SDS011;23733;53.254;10.430;2023-12-28T06:50:07;5.77;;;2.10;;
37895;SDS011;23733;53.254;10.430;2023-12-28T06:52:33;6.00;;;2.23;;
37895;SDS011;23733;53.254;10.430;2023-12-28T06:54:59;6.57;;;1.90;;
37895;SDS011;23733;53.254;10.430;2023-12-28T06:57:26;4.37;;;1.83;;
37895;SDS011;23733;53.254;10.430;2023-12-28T06:59:53;5.33;;;2.30;;
37895;SDS011;23733;53.254;10.430;2023-12-28T07:02:19;11.57;;;2.13;;
37895;SDS011;23733;53.254;10.430;2023-12-28T07:04:45;7.07;;;2.00;;
37895;SDS011;23733;53.254;10.430;2023-12-28T07:07:12;4.07;;;2.10;;
37895;SDS011;23733;53.254;10.430;2023-12-28T07:09:38;4.57;;;2.20;;
37895;SDS011;23733;53.254;10.430;2023-12-28T07:12:05;4.03;;;1.90;;
37895;SDS011;23733;53.254;10.430;2023-12-28T07:14:31;6.33;;;2.17;;
37895;SDS011;23733;53.254;10.430;2023-12-28T07:16:57;6.37;;;2.03;;
37895;SDS011;23733;53.254;10.430;2023-12-28T07:19:24;5.23;;;1.77;;
37895;SDS011;23733;53.254;10.430;2023-12-28T07:21:50;3.33;;;1.90;;
37895;SDS011;23733;53.254;10.430;2023-12-28T07:24:16;5.00;;;1.90;;
37895;SDS011;23733;53.254;10.430;2023-12-28T07:26:43;3.97;;;2.07;;
37895;SDS011;23733;53.254;10.430;2023-12-28T07:29:09;6.17;;;2.73;;
37895;SDS011;23733;53.254;10.430;2023-12-28T07:31:35;5.30;;;2.17;;
37895;SDS011;23733;53.254;10.430;2023-12-28T07:34:02;6.20;;;1.93;;
37895;SDS011;23733;53.254;10.430;2023-12-28T07:36:28;4.83;;;1.97;;
37895;SDS011;23733;53.254;10.430;2023-12-28T07:38:55;4.73;;;2.07;;
37895;SDS011;23733;53.254;10.430;2023-12-28T07:41:21;3.37;;;1.83;;
37895;SDS011;23733;53.254;10.430;2023-12-28T07:43:47;6.73;;;2.00;;
37895;SDS011;23733;53.254;10.430;2023-12-28T07:46:14;5.00;;;1.93;;
37895;SDS011;23733;53.254;10.430;2023-12-28T07:48:40;4.50;;;1.70;;
37895;SDS011;23733;53.254;10.430;2023-12-28T07:51:07;7.20;;;2.03;;
37895;SDS011;23733;53.254;10.430;2023-12-28T07:53:33;5.13;;;2.10;;
37895;SDS011;23733;53.254;10.430;2023-12-28T07:56:00;5.23;;;1.90;;
37895;SDS011;23733;53.254;10.430;2023-12-28T07:58:26;6.57;;;2.10;;
37895;SDS011;23733;53.254;10.430;2023-12-28T08:00:52;6.00;;;2.07;;
37895;SDS011;23733;53.254;10.430;2023-12-28T08:03:19;4.20;;;1.97;;
37895;SDS011;23733;53.254;10.430;2023-12-28T08:05:45;3.90;;;1.70;;
37895;SDS011;23733;53.254;10.430;2023-12-28T08:08:11;3.30;;;1.60;;
37895;SDS011;23733;53.254;10.430;2023-12-28T08:10:38;4.30;;;1.70;;
37895;SDS011;23733;53.254;10.430;2023-12-28T08:13:04;7.83;;;1.70;;
37895;SDS011;23733;53.254;10.430;2023-12-28T08:15:30;5.17;;;2.03;;
37895;SDS011;23733;53.254;10.430;2023-12-28T08:17:57;4.00;;;1.80;;
37895;SDS011;23733;53.254;10.430;2023-12-28T08:20:23;4.73;;;1.93;;
37895;SDS011;23733;53.254;10.430;2023-12-28T08:22:49;3.40;;;1.83;;
37895;SDS011;23733;53.254;10.430;2023-12-28T08:25:15;3.80;;;1.77;;
37895;SDS011;23733;53.254;10.430;2023-12-28T08:27:42;8.40;;;2.13;;
37895;SDS011;23733;53.254;10.430;2023-12-28T08:30:08;7.30;;;1.70;;
37895;SDS011;23733;53.254;10.430;2023-12-28T08:32:35;4.20;;;1.97;;
37895;SDS011;23733;53.254;10.430;2023-12-28T08:35:01;5.70;;;1.80;;
37895;SDS011;23733;53.254;10.430;2023-12-28T08:37:28;4.47;;;1.70;;
37895;SDS011;23733;53.254;10.430;2023-12-28T08:39:54;8.77;;;2.03;;
37895;SDS011;23733;53.254;10.430;2023-12-28T08:42:21;6.10;;;2.00;;
37895;SDS011;23733;53.254;10.430;2023-12-28T08:44:50;9.07;;;2.53;;
37895;SDS011;23733;53.254;10.430;2023-12-28T08:47:17;10.63;;;2.13;;
37895;SDS011;23733;53.254;10.430;2023-12-28T08:49:43;6.47;;;1.73;;
37895;SDS011;23733;53.254;10.430;2023-12-28T08:52:09;4.03;;;1.70;;
37895;SDS011;23733;53.254;10.430;2023-12-28T08:54:36;5.83;;;2.33;;
37895;SDS011;23733;53.254;10.430;2023-12-28T08:57:03;4.30;;;1.90;;
37895;SDS011;23733;53.254;10.430;2023-12-28T08:59:29;3.23;;;1.73;;
37895;SDS011;23733;53.254;10.430;2023-12-28T09:01:55;5.97;;;1.90;;
37895;SDS011;23733;53.254;10.430;2023-12-28T09:04:22;7.47;;;1.90;;
37895;SDS011;23733;53.254;10.430;2023-12-28T09:06:48;5.53;;;2.10;;
37895;SDS011;23733;53.254;10.430;2023-12-28T09:09:15;6.17;;;1.80;;
37895;SDS011;23733;53.254;10.430;2023-12-28T09:11:41;5.67;;;1.80;;
37895;SDS011;23733;53.254;10.430;2023-12-28T09:14:07;5.40;;;1.60;;
37895;SDS011;23733;53.254;10.430;2023-12-28T09:16:33;5.77;;;1.80;;
37895;SDS011;23733;53.254;10.430;2023-12-28T09:19:03;8.73;;;1.90;;
37895;SDS011;23733;53.254;10.430;2023-12-28T09:21:30;6.23;;;2.03;;
37895;SDS011;23733;53.254;10.430;2023-12-28T09:23:56;5.60;;;2.00;;
37895;SDS011;23733;53.254;10.430;2023-12-28T09:26:22;7.07;;;1.67;;
37895;SDS011;23733;53.254;10.430;2023-12-28T09:28:49;7.13;;;1.70;;
37895;SDS011;23733;53.254;10.430;2023-12-28T09:31:15;4.53;;;1.73;;
37895;SDS011;23733;53.254;10.430;2023-12-28T09:33:43;5.43;;;2.00;;
37895;SDS011;23733;53.254;10.430;2023-12-28T09:36:09;4.67;;;1.60;;
37895;SDS011;23733;53.254;10.430;2023-12-28T09:38:38;6.93;;;2.17;;
37895;SDS011;23733;53.254;10.430;2023-12-28T09:41:09;9.70;;;1.77;;
37895;SDS011;23733;53.254;10.430;2023-12-28T09:43:40;8.33;;;2.00;;
37895;SDS011;23733;53.254;10.430;2023-12-28T09:46:08;10.17;;;2.50;;
37895;SDS011;23733;53.254;10.430;2023-12-28T09:48:38;5.23;;;1.90;;
37895;SDS011;23733;53.254;10.430;2023-12-28T09:51:04;5.40;;;1.93;;
37895;SDS011;23733;53.254;10.430;2023-12-28T09:53:32;9.83;;;1.80;;
37895;SDS011;23733;53.254;10.430;2023-12-28T09:55:59;8.50;;;1.80;;
37895;SDS011;23733;53.254;10.430;2023-12-28T09:58:26;5.57;;;1.90;;
37895;SDS011;23733;53.254;10.430;2023-12-28T10:00:55;7.13;;;1.60;;
37895;SDS011;23733;53.254;10.430;2023-12-28T10:03:22;6.90;;;2.00;;
37895;SDS011;23733;53.254;10.430;2023-12-28T10:05:48;4.70;;;1.63;;
37895;SDS011;23733;53.254;10.430;2023-12-28T10:08:15;7.60;;;2.00;;
37895;SDS011;23733;53.254;10.430;2023-12-28T10:10:41;5.07;;;1.70;;
37895;SDS011;23733;53.254;10.430;2023-12-28T10:13:08;4.73;;;1.63;;
37895;SDS011;23733;53.254;10.430;2023-12-28T10:15:35;6.93;;;2.00;;
37895;SDS011;23733;53.254;10.430;2023-12-28T10:18:01;4.93;;;1.53;;
37895;SDS011;23733;53.254;10.430;2023-12-28T10:20:28;8.50;;;2.07;;
37895;SDS011;23733;53.254;10.430;2023-12-28T10:22:55;9.27;;;1.80;;
37895;SDS011;23733;53.254;10.430;2023-12-28T10:25:21;4.53;;;1.40;;
37895;SDS011;23733;53.254;10.430;2023-12-28T10:27:52;9.70;;;1.70;;
37895;SDS011;23733;53.254;10.430;2023-12-28T10:30:19;7.90;;;1.73;;
37895;SDS011;23733;53.254;10.430;2023-12-28T10:32:46;7.83;;;2.03;;
37895;SDS011;23733;53.254;10.430;2023-12-28T10:35:12;7.93;;;1.90;;
37895;SDS011;23733;53.254;10.430;2023-12-28T10:37:40;6.50;;;1.83;;
37895;SDS011;23733;53.254;10.430;2023-12-28T10:40:13;5.27;;;1.63;;
37895;SDS011;23733;53.254;10.430;2023-12-28T10:45:12;5.90;;;1.70;;
37895;SDS011;23733;53.254;10.430;2023-12-28T10:47:42;7.80;;;2.07;;
37895;SDS011;23733;53.254;10.430;2023-12-28T10:50:10;8.40;;;1.90;;
37895;SDS011;23733;53.254;10.430;2023-12-28T10:52:37;5.87;;;1.70;;
37895;SDS011;23733;53.254;10.430;2023-12-28T10:55:11;5.73;;;1.70;;
37895;SDS011;23733;53.254;10.430;2023-12-28T10:57:52;4.77;;;1.70;;
37895;SDS011;23733;53.254;10.430;2023-12-28T11:00:22;8.07;;;2.00;;
37895;SDS011;23733;53.254;10.430;2023-12-28T11:02:51;6.20;;;1.63;;
37895;SDS011;23733;53.254;10.430;2023-12-28T11:05:21;7.57;;;1.83;;
37895;SDS011;23733;53.254;10.430;2023-12-28T11:07:49;5.50;;;1.70;;
37895;SDS011;23733;53.254;10.430;2023-12-28T11:10:19;7.50;;;2.00;;
37895;SDS011;23733;53.254;10.430;2023-12-28T11:12:46;7.20;;;2.17;;
37895;SDS011;23733;53.254;10.430;2023-12-28T11:15:12;6.70;;;1.57;;
37895;SDS011;23733;53.254;10.430;2023-12-28T11:17:39;8.03;;;1.93;;
37895;SDS011;23733;53.254;10.430;2023-12-28T11:20:06;6.83;;;1.83;;
37895;SDS011;23733;53.254;10.430;2023-12-28T11:22:33;10.07;;;2.00;;
37895;SDS011;23733;53.254;10.430;2023-12-28T11:25:00;7.63;;;2.00;;
37895;SDS011;23733;53.254;10.430;2023-12-28T11:27:33;15.70;;;2.77;;
37895;SDS011;23733;53.254;10.430;2023-12-28T11:29:59;5.57;;;1.83;;
37895;SDS011;23733;53.254;10.430;2023-12-28T11:32:25;5.20;;;1.83;;
37895;SDS011;23733;53.254;10.430;2023-12-28T11:34:56;6.63;;;1.50;;
37895;SDS011;23733;53.254;10.430;2023-12-28T11:37:26;8.17;;;2.40;;
37895;SDS011;23733;53.254;10.430;2023-12-28T11:39:54;9.07;;;2.20;;
37895;SDS011;23733;53.254;10.430;2023-12-28T11:42:23;6.87;;;2.40;;
37895;SDS011;23733;53.254;10.430;2023-12-28T11:44:54;9.77;;;2.10;;
37895;SDS011;23733;53.254;10.430;2023-12-28T11:47:22;8.87;;;2.13;;
37895;SDS011;23733;53.254;10.430;2023-12-28T11:49:48;5.33;;;1.73;;
37895;SDS011;23733;53.254;10.430;2023-12-28T11:52:22;11.53;;;2.27;;
37895;SDS011;23733;53.254;10.430;2023-12-28T11:54:48;7.67;;;2.33;;
37895;SDS011;23733;53.254;10.430;2023-12-28T11:57:16;10.43;;;1.80;;
37895;SDS011;23733;53.254;10.430;2023-12-28T11:59:43;7.63;;;1.90;;
37895;SDS011;23733;53.254;10.430;2023-12-28T12:02:09;7.63;;;2.20;;
37895;SDS011;23733;53.254;10.430;2023-12-28T12:04:36;9.03;;;2.20;;
37895;SDS011;23733;53.254;10.430;2023-12-28T12:07:03;10.00;;;2.77;;
37895;SDS011;23733;53.254;10.430;2023-12-28T12:09:30;10.43;;;2.33;;
37895;SDS011;23733;53.254;10.430;2023-12-28T12:12:00;6.03;;;2.03;;
37895;SDS011;23733;53.254;10.430;2023-12-28T12:14:27;8.53;;;2.50;;
37895;SDS011;23733;53.254;10.430;2023-12-28T12:16:54;9.50;;;2.83;;
37895;SDS011;23733;53.254;10.430;2023-12-28T12:19:24;10.17;;;2.07;;
37895;SDS011;23733;53.254;10.430;2023-12-28T12:21:54;7.97;;;2.73;;
37895;SDS011;23733;53.254;10.430;2023-12-28T12:24:21;5.93;;;2.23;;
37895;SDS011;23733;53.254;10.430;2023-12-28T12:26:47;10.20;;;2.20;;
37895;SDS011;23733;53.254;10.430;2023-12-28T12:29:14;8.83;;;2.40;;
37895;SDS011;23733;53.254;10.430;2023-12-28T12:31:40;10.77;;;2.30;;
37895;SDS011;23733;53.254;10.430;2023-12-28T12:34:09;7.00;;;1.97;;
37895;SDS011;23733;53.254;10.430;2023-12-28T12:36:35;10.33;;;2.20;;
37895;SDS011;23733;53.254;10.430;2023-12-28T12:39:03;8.80;;;2.17;;
37895;SDS011;23733;53.254;10.430;2023-12-28T12:41:36;10.47;;;2.47;;
37895;SDS011;23733;53.254;10.430;2023-12-28T12:44:04;7.93;;;2.27;;
37895;SDS011;23733;53.254;10.430;2023-12-28T12:46:38;7.83;;;1.97;;
37895;SDS011;23733;53.254;10.430;2023-12-28T12:49:06;7.70;;;2.33;;
37895;SDS011;23733;53.254;10.430;2023-12-28T12:51:32;9.70;;;2.10;;
37895;SDS011;23733;53.254;10.430;2023-12-28T12:53:59;11.30;;;2.20;;
37895;SDS011;23733;53.254;10.430;2023-12-28T12:56:26;13.70;;;2.73;;
37895;SDS011;23733;53.254;10.430;2023-12-28T12:58:55;6.77;;;2.20;;
37895;SDS011;23733;53.254;10.430;2023-12-28T13:01:46;9.13;;;2.20;;
37895;SDS011;23733;53.254;10.430;2023-12-28T13:04:17;10.50;;;2.87;;
37895;SDS011;23733;53.254;10.430;2023-12-28T13:06:44;7.90;;;2.10;;
37895;SDS011;23733;53.254;10.430;2023-12-28T13:09:10;11.67;;;2.13;;
37895;SDS011;23733;53.254;10.430;2023-12-28T13:11:37;7.20;;;2.07;;
37895;SDS011;23733;53.254;10.430;2023-12-28T13:14:03;9.20;;;2.37;;
37895;SDS011;23733;53.254;10.430;2023-12-28T13:16:30;6.60;;;1.90;;
37895;SDS011;23733;53.254;10.430;2023-12-28T13:18:56;9.23;;;2.00;;
37895;SDS011;23733;53.254;10.430;2023-12-28T13:21:23;9.50;;;2.33;;
37895;SDS011;23733;53.254;10.430;2023-12-28T13:23:49;13.03;;;3.07;;
37895;SDS011;23733;53.254;10.430;2023-12-28T13:26:15;11.03;;;2.20;;
37895;SDS011;23733;53.254;10.430;2023-12-28T13:28:42;8.00;;;2.47;;
37895;SDS011;23733;53.254;10.430;2023-12-28T13:31:08;10.30;;;2.47;;
37895;SDS011;23733;53.254;10.430;2023-12-28T13:33:35;8.10;;;2.20;;
37895;SDS011;23733;53.254;10.430;2023-12-28T13:36:01;9.40;;;2.07;;
37895;SDS011;23733;53.254;10.430;2023-12-28T13:38:28;11.03;;;2.53;;
37895;SDS011;23733;53.254;10.430;2023-12-28T13:40:56;6.67;;;1.97;;
37895;SDS011;23733;53.254;10.430;2023-12-28T13:43:22;12.67;;;2.50;;
37895;SDS011;23733;53.254;10.430;2023-12-28T13:45:49;10.83;;;2.60;;
37895;SDS011;23733;53.254;10.430;2023-12-28T13:48:15;8.27;;;2.47;;
37895;SDS011;23733;53.254;10.430;2023-12-28T13:50:41;11.40;;;2.47;;
37895;SDS011;23733;53.254;10.430;2023-12-28T13:53:09;9.27;;;1.93;;
37895;SDS011;23733;53.254;10.430;2023-12-28T13:55:35;11.67;;;3.03;;
37895;SDS011;23733;53.254;10.430;2023-12-28T13:58:01;8.40;;;2.20;;
37895;SDS011;23733;53.254;10.430;2023-12-28T14:00:29;11.40;;;2.47;;
37895;SDS011;23733;53.254;10.430;2023-12-28T14:02:56;8.77;;;2.17;;
37895;SDS011;23733;53.254;10.430;2023-12-28T14:05:24;10.73;;;2.63;;
37895;SDS011;23733;53.254;10.430;2023-12-28T14:07:50;9.67;;;2.37;;
37895;SDS011;23733;53.254;10.430;2023-12-28T14:10:17;6.97;;;2.30;;
37895;SDS011;23733;53.254;10.430;2023-12-28T14:12:44;13.80;;;2.60;;
37895;SDS011;23733;53.254;10.430;2023-12-28T14:15:11;10.60;;;2.27;;
37895;SDS011;23733;53.254;10.430;2023-12-28T14:17:40;6.70;;;2.00;;
37895;SDS011;23733;53.254;10.430;2023-12-28T14:20:07;8.87;;;2.20;;
37895;SDS011;23733;53.254;10.430;2023-12-28T14:22:37;8.07;;;2.13;;
37895;SDS011;23733;53.254;10.430;2023-12-28T14:25:04;9.00;;;2.80;;
37895;SDS011;23733;53.254;10.430;2023-12-28T14:27:30;9.13;;;2.50;;
37895;SDS011;23733;53.254;10.430;2023-12-28T14:29:57;7.53;;;2.10;;
37895;SDS011;23733;53.254;10.430;2023-12-28T14:32:23;11.50;;;2.77;;
37895;SDS011;23733;53.254;10.430;2023-12-28T14:34:50;9.90;;;2.20;;
37895;SDS011;23733;53.254;10.430;2023-12-28T14:37:16;11.67;;;2.10;;
37895;SDS011;23733;53.254;10.430;2023-12-28T14:39:43;9.43;;;2.57;;
37895;SDS011;23733;53.254;10.430;2023-12-28T14:42:09;9.17;;;2.43;;